Riske Creek, Canada
Current Conditions -  °F | °C
As of 2:00 AM on Monday 26 Jan 2015 (Local Time) from CYWL Reporting Station
Overcast Overcast  
Wind Chill: 35°   Ceiling: 10000
Heat Index: 41°   Visibility: 15mi
Dew Point: 32°   Wind: 9mph
Humidity: 70%   Direction: 120°ESE
Pressure: 29.9"   Gusts: NA
Location:  51.97°N, 122.52°W
Report Text: CYWL 261000Z 12008KT 15SM OVC100 05/M00 A2990 RMK AC8 SLP147
Loading
Personal Weather Stations






























Interactive Weather Map New forecast layout! Learn more

10-Day Weather Forecast

Advertisements
Track Severe Weather on mobile